sensor_id;sensor_type;location;lat;lon;timestamp;P1;durP1;ratioP1;P2;durP2;ratioP2
78968;SDS011;68369;51.050;17.018;2023-03-08T00:00:16;5.20;;;3.20;;
78968;SDS011;68369;51.050;17.018;2023-03-08T00:03:13;6.60;;;3.40;;
78968;SDS011;68369;51.050;17.018;2023-03-08T00:06:02;6.10;;;3.20;;
78968;SDS011;68369;51.050;17.018;2023-03-08T00:08:49;5.90;;;3.30;;
78968;SDS011;68369;51.050;17.018;2023-03-08T00:11:37;7.20;;;4.00;;
78968;SDS011;68369;51.050;17.018;2023-03-08T00:14:22;5.90;;;3.30;;
78968;SDS011;68369;51.050;17.018;2023-03-08T00:17:08;5.30;;;3.20;;
78968;SDS011;68369;51.050;17.018;2023-03-08T00:19:53;5.80;;;3.20;;
78968;SDS011;68369;51.050;17.018;2023-03-08T00:22:38;4.80;;;3.00;;
78968;SDS011;68369;51.050;17.018;2023-03-08T00:25:24;4.60;;;2.00;;
78968;SDS011;68369;51.050;17.018;2023-03-08T00:28:09;4.70;;;3.00;;
78968;SDS011;68369;51.050;17.018;2023-03-08T00:30:58;5.10;;;3.40;;
78968;SDS011;68369;51.050;17.018;2023-03-08T00:33:44;4.40;;;3.00;;
78968;SDS011;68369;51.050;17.018;2023-03-08T00:36:29;5.70;;;3.50;;
78968;SDS011;68369;51.050;17.018;2023-03-08T00:42:00;6.10;;;3.30;;
78968;SDS011;68369;51.050;17.018;2023-03-08T00:44:48;6.20;;;3.90;;
78968;SDS011;68369;51.050;17.018;2023-03-08T00:47:33;9.80;;;4.10;;
78968;SDS011;68369;51.050;17.018;2023-03-08T00:52:57;8.60;;;5.10;;
78968;SDS011;68369;51.050;17.018;2023-03-08T00:56:02;6.30;;;3.80;;
78968;SDS011;68369;51.050;17.018;2023-03-08T00:58:48;8.20;;;4.80;;
78968;SDS011;68369;51.050;17.018;2023-03-08T01:01:33;8.00;;;5.50;;
78968;SDS011;68369;51.050;17.018;2023-03-08T01:04:18;11.20;;;6.30;;
78968;SDS011;68369;51.050;17.018;2023-03-08T01:07:04;10.10;;;5.50;;
78968;SDS011;68369;51.050;17.018;2023-03-08T01:09:52;9.10;;;5.70;;
78968;SDS011;68369;51.050;17.018;2023-03-08T01:12:39;10.50;;;5.40;;
78968;SDS011;68369;51.050;17.018;2023-03-08T01:15:24;12.60;;;5.60;;
78968;SDS011;68369;51.050;17.018;2023-03-08T01:18:09;12.80;;;6.70;;
78968;SDS011;68369;51.050;17.018;2023-03-08T01:20:59;10.90;;;5.60;;
78968;SDS011;68369;51.050;17.018;2023-03-08T01:23:46;7.90;;;4.30;;
78968;SDS011;68369;51.050;17.018;2023-03-08T01:26:31;8.10;;;4.20;;
78968;SDS011;68369;51.050;17.018;2023-03-08T01:29:17;7.50;;;4.60;;
78968;SDS011;68369;51.050;17.018;2023-03-08T01:32:03;8.70;;;4.50;;
78968;SDS011;68369;51.050;17.018;2023-03-08T01:34:48;6.30;;;4.10;;
78968;SDS011;68369;51.050;17.018;2023-03-08T01:37:34;5.60;;;4.00;;
78968;SDS011;68369;51.050;17.018;2023-03-08T01:40:19;7.10;;;4.20;;
78968;SDS011;68369;51.050;17.018;2023-03-08T01:43:24;6.50;;;3.20;;
78968;SDS011;68369;51.050;17.018;2023-03-08T01:49:15;4.40;;;2.90;;
78968;SDS011;68369;51.050;17.018;2023-03-08T01:54:52;2.90;;;2.00;;
78968;SDS011;68369;51.050;17.018;2023-03-08T01:57:40;3.70;;;1.90;;
78968;SDS011;68369;51.050;17.018;2023-03-08T02:00:29;3.00;;;2.20;;
78968;SDS011;68369;51.050;17.018;2023-03-08T02:03:14;3.30;;;1.90;;
78968;SDS011;68369;51.050;17.018;2023-03-08T02:06:00;2.40;;;1.60;;
78968;SDS011;68369;51.050;17.018;2023-03-08T02:08:46;2.40;;;1.70;;
78968;SDS011;68369;51.050;17.018;2023-03-08T02:11:32;4.30;;;2.50;;
78968;SDS011;68369;51.050;17.018;2023-03-08T02:14:19;4.70;;;2.60;;
78968;SDS011;68369;51.050;17.018;2023-03-08T02:17:04;3.50;;;1.90;;
78968;SDS011;68369;51.050;17.018;2023-03-08T02:19:55;2.70;;;1.50;;
78968;SDS011;68369;51.050;17.018;2023-03-08T02:22:45;5.40;;;1.80;;
78968;SDS011;68369;51.050;17.018;2023-03-08T02:25:31;2.60;;;1.60;;
78968;SDS011;68369;51.050;17.018;2023-03-08T02:28:16;3.30;;;1.60;;
78968;SDS011;68369;51.050;17.018;2023-03-08T02:31:03;2.40;;;1.60;;
78968;SDS011;68369;51.050;17.018;2023-03-08T02:33:49;3.50;;;1.70;;
78968;SDS011;68369;51.050;17.018;2023-03-08T02:36:33;3.60;;;1.20;;
78968;SDS011;68369;51.050;17.018;2023-03-08T02:39:18;3.20;;;1.60;;
78968;SDS011;68369;51.050;17.018;2023-03-08T02:42:03;3.60;;;1.60;;
78968;SDS011;68369;51.050;17.018;2023-03-08T02:44:49;5.40;;;2.00;;
78968;SDS011;68369;51.050;17.018;2023-03-08T02:47:34;4.40;;;2.00;;
78968;SDS011;68369;51.050;17.018;2023-03-08T02:50:20;1.80;;;0.90;;
78968;SDS011;68369;51.050;17.018;2023-03-08T02:59:36;2.80;;;1.50;;
78968;SDS011;68369;51.050;17.018;2023-03-08T03:05:10;3.00;;;1.60;;
78968;SDS011;68369;51.050;17.018;2023-03-08T03:07:56;4.00;;;1.70;;
78968;SDS011;68369;51.050;17.018;2023-03-08T03:10:42;3.80;;;1.90;;
78968;SDS011;68369;51.050;17.018;2023-03-08T03:16:13;6.10;;;1.70;;
78968;SDS011;68369;51.050;17.018;2023-03-08T03:28:25;6.10;;;1.90;;
78968;SDS011;68369;51.050;17.018;2023-03-08T03:37:54;3.90;;;1.60;;
78968;SDS011;68369;51.050;17.018;2023-03-08T03:40:42;5.50;;;2.10;;
78968;SDS011;68369;51.050;17.018;2023-03-08T03:43:28;4.70;;;1.60;;
78968;SDS011;68369;51.050;17.018;2023-03-08T03:52:30;4.30;;;1.70;;
78968;SDS011;68369;51.050;17.018;2023-03-08T03:55:16;2.50;;;0.90;;
78968;SDS011;68369;51.050;17.018;2023-03-08T03:58:01;3.80;;;1.50;;
78968;SDS011;68369;51.050;17.018;2023-03-08T04:00:47;3.70;;;1.60;;
78968;SDS011;68369;51.050;17.018;2023-03-08T04:09:17;4.70;;;1.60;;
78968;SDS011;68369;51.050;17.018;2023-03-08T04:21:15;5.30;;;1.80;;
78968;SDS011;68369;51.050;17.018;2023-03-08T04:30:22;4.20;;;1.40;;
78968;SDS011;68369;51.050;17.018;2023-03-08T04:42:09;5.70;;;2.10;;
78968;SDS011;68369;51.050;17.018;2023-03-08T04:44:56;7.30;;;2.90;;
78968;SDS011;68369;51.050;17.018;2023-03-08T04:54:20;5.20;;;1.90;;
78968;SDS011;68369;51.050;17.018;2023-03-08T04:59:51;2.70;;;1.60;;
78968;SDS011;68369;51.050;17.018;2023-03-08T05:02:36;5.10;;;2.10;;
78968;SDS011;68369;51.050;17.018;2023-03-08T05:08:36;7.00;;;2.90;;
78968;SDS011;68369;51.050;17.018;2023-03-08T05:11:26;5.90;;;2.10;;
78968;SDS011;68369;51.050;17.018;2023-03-08T05:14:11;3.70;;;2.00;;
78968;SDS011;68369;51.050;17.018;2023-03-08T05:16:57;3.10;;;2.00;;
78968;SDS011;68369;51.050;17.018;2023-03-08T05:28:26;7.10;;;3.90;;
78968;SDS011;68369;51.050;17.018;2023-03-08T05:31:15;5.40;;;3.00;;
78968;SDS011;68369;51.050;17.018;2023-03-08T05:34:02;5.00;;;3.20;;
78968;SDS011;68369;51.050;17.018;2023-03-08T05:36:47;5.00;;;2.80;;
78968;SDS011;68369;51.050;17.018;2023-03-08T05:42:18;6.50;;;3.40;;
78968;SDS011;68369;51.050;17.018;2023-03-08T05:45:04;5.60;;;2.80;;
78968;SDS011;68369;51.050;17.018;2023-03-08T05:53:28;4.30;;;2.50;;
78968;SDS011;68369;51.050;17.018;2023-03-08T06:02:25;14.00;;;7.10;;
78968;SDS011;68369;51.050;17.018;2023-03-08T06:05:13;8.70;;;4.20;;
78968;SDS011;68369;51.050;17.018;2023-03-08T06:07:59;10.60;;;4.60;;
78968;SDS011;68369;51.050;17.018;2023-03-08T06:13:29;11.80;;;5.50;;
78968;SDS011;68369;51.050;17.018;2023-03-08T06:16:14;12.00;;;5.50;;
78968;SDS011;68369;51.050;17.018;2023-03-08T06:22:15;23.30;;;8.50;;
78968;SDS011;68369;51.050;17.018;2023-03-08T06:28:20;21.10;;;8.30;;
78968;SDS011;68369;51.050;17.018;2023-03-08T06:31:09;20.00;;;9.20;;
78968;SDS011;68369;51.050;17.018;2023-03-08T06:33:57;15.10;;;7.20;;
78968;SDS011;68369;51.050;17.018;2023-03-08T06:36:42;17.40;;;11.00;;
78968;SDS011;68369;51.050;17.018;2023-03-08T06:39:27;18.40;;;10.10;;
78968;SDS011;68369;51.050;17.018;2023-03-08T06:42:14;11.60;;;7.00;;
78968;SDS011;68369;51.050;17.018;2023-03-08T06:45:00;8.10;;;5.00;;
78968;SDS011;68369;51.050;17.018;2023-03-08T06:47:45;6.30;;;3.10;;
78968;SDS011;68369;51.050;17.018;2023-03-08T06:50:31;5.40;;;2.60;;
78968;SDS011;68369;51.050;17.018;2023-03-08T06:53:16;13.70;;;6.10;;
78968;SDS011;68369;51.050;17.018;2023-03-08T06:56:02;7.10;;;3.80;;
78968;SDS011;68369;51.050;17.018;2023-03-08T06:58:50;4.30;;;2.10;;
78968;SDS011;68369;51.050;17.018;2023-03-08T07:01:35;7.50;;;3.00;;
78968;SDS011;68369;51.050;17.018;2023-03-08T07:04:20;6.90;;;3.70;;
78968;SDS011;68369;51.050;17.018;2023-03-08T07:07:05;9.20;;;4.20;;
78968;SDS011;68369;51.050;17.018;2023-03-08T07:09:51;7.50;;;3.60;;
78968;SDS011;68369;51.050;17.018;2023-03-08T07:15:24;5.80;;;2.60;;
78968;SDS011;68369;51.050;17.018;2023-03-08T07:18:09;9.40;;;4.10;;
78968;SDS011;68369;51.050;17.018;2023-03-08T07:20:55;6.90;;;3.60;;
78968;SDS011;68369;51.050;17.018;2023-03-08T07:23:40;7.30;;;3.40;;
78968;SDS011;68369;51.050;17.018;2023-03-08T07:26:25;4.70;;;2.50;;
78968;SDS011;68369;51.050;17.018;2023-03-08T07:29:11;7.20;;;2.70;;
78968;SDS011;68369;51.050;17.018;2023-03-08T07:31:56;3.00;;;1.60;;
78968;SDS011;68369;51.050;17.018;2023-03-08T07:37:26;6.30;;;3.00;;
78968;SDS011;68369;51.050;17.018;2023-03-08T07:40:13;2.70;;;1.30;;
78968;SDS011;68369;51.050;17.018;2023-03-08T07:43:00;3.10;;;1.30;;
78968;SDS011;68369;51.050;17.018;2023-03-08T07:45:45;8.40;;;3.80;;
78968;SDS011;68369;51.050;17.018;2023-03-08T07:48:30;6.30;;;3.20;;
78968;SDS011;68369;51.050;17.018;2023-03-08T07:51:16;4.90;;;2.50;;
78968;SDS011;68369;51.050;17.018;2023-03-08T07:54:01;5.90;;;2.20;;
78968;SDS011;68369;51.050;17.018;2023-03-08T07:56:47;4.30;;;2.20;;
78968;SDS011;68369;51.050;17.018;2023-03-08T07:59:32;8.90;;;3.70;;
78968;SDS011;68369;51.050;17.018;2023-03-08T08:05:02;6.50;;;3.60;;
78968;SDS011;68369;51.050;17.018;2023-03-08T08:07:48;4.70;;;3.20;;
78968;SDS011;68369;51.050;17.018;2023-03-08T08:10:34;5.70;;;2.90;;
78968;SDS011;68369;51.050;17.018;2023-03-08T08:13:19;16.60;;;9.50;;
78968;SDS011;68369;51.050;17.018;2023-03-08T08:16:04;8.10;;;3.70;;
78968;SDS011;68369;51.050;17.018;2023-03-08T08:18:51;5.50;;;3.00;;
78968;SDS011;68369;51.050;17.018;2023-03-08T08:21:37;4.70;;;2.80;;
78968;SDS011;68369;51.050;17.018;2023-03-08T08:24:22;4.70;;;3.00;;
78968;SDS011;68369;51.050;17.018;2023-03-08T08:27:07;6.80;;;3.70;;
78968;SDS011;68369;51.050;17.018;2023-03-08T08:29:52;5.00;;;2.50;;
78968;SDS011;68369;51.050;17.018;2023-03-08T08:32:37;4.70;;;2.90;;
78968;SDS011;68369;51.050;17.018;2023-03-08T08:35:22;4.00;;;2.60;;
78968;SDS011;68369;51.050;17.018;2023-03-08T08:38:25;5.80;;;2.40;;
78968;SDS011;68369;51.050;17.018;2023-03-08T08:41:11;4.20;;;1.80;;
78968;SDS011;68369;51.050;17.018;2023-03-08T08:44:01;5.50;;;2.20;;
78968;SDS011;68369;51.050;17.018;2023-03-08T08:46:46;3.50;;;1.90;;
78968;SDS011;68369;51.050;17.018;2023-03-08T08:52:16;4.40;;;2.40;;
78968;SDS011;68369;51.050;17.018;2023-03-08T08:55:03;5.00;;;2.60;;
78968;SDS011;68369;51.050;17.018;2023-03-08T08:57:48;1.50;;;0.70;;
78968;SDS011;68369;51.050;17.018;2023-03-08T09:00:34;1.50;;;0.90;;
78968;SDS011;68369;51.050;17.018;2023-03-08T09:03:21;5.00;;;2.40;;
78968;SDS011;68369;51.050;17.018;2023-03-08T09:06:06;2.50;;;1.60;;
78968;SDS011;68369;51.050;17.018;2023-03-08T09:08:52;3.50;;;1.90;;
78968;SDS011;68369;51.050;17.018;2023-03-08T09:11:39;8.10;;;3.70;;
78968;SDS011;68369;51.050;17.018;2023-03-08T09:14:38;14.40;;;7.20;;
78968;SDS011;68369;51.050;17.018;2023-03-08T09:20:09;27.90;;;18.30;;
78968;SDS011;68369;51.050;17.018;2023-03-08T09:22:54;6.40;;;3.40;;
78968;SDS011;68369;51.050;17.018;2023-03-08T09:25:39;4.00;;;2.10;;
78968;SDS011;68369;51.050;17.018;2023-03-08T09:28:24;4.00;;;2.40;;
78968;SDS011;68369;51.050;17.018;2023-03-08T09:33:58;4.10;;;2.00;;
78968;SDS011;68369;51.050;17.018;2023-03-08T09:36:44;8.70;;;2.40;;
78968;SDS011;68369;51.050;17.018;2023-03-08T09:39:29;48.10;;;16.90;;
78968;SDS011;68369;51.050;17.018;2023-03-08T09:42:15;8.00;;;3.80;;
78968;SDS011;68369;51.050;17.018;2023-03-08T09:45:22;5.50;;;2.90;;
78968;SDS011;68369;51.050;17.018;2023-03-08T09:51:02;6.50;;;3.50;;
78968;SDS011;68369;51.050;17.018;2023-03-08T09:53:56;4.70;;;2.60;;
78968;SDS011;68369;51.050;17.018;2023-03-08T09:56:50;6.60;;;4.00;;
78968;SDS011;68369;51.050;17.018;2023-03-08T09:59:58;5.30;;;3.70;;
78968;SDS011;68369;51.050;17.018;2023-03-08T10:08:48;7.30;;;4.50;;
78968;SDS011;68369;51.050;17.018;2023-03-08T10:11:48;4.70;;;3.10;;
78968;SDS011;68369;51.050;17.018;2023-03-08T10:15:10;7.70;;;4.10;;
78968;SDS011;68369;51.050;17.018;2023-03-08T10:18:04;6.10;;;4.00;;
78968;SDS011;68369;51.050;17.018;2023-03-08T10:21:11;8.00;;;4.20;;
78968;SDS011;68369;51.050;17.018;2023-03-08T10:24:05;5.90;;;3.80;;
78968;SDS011;68369;51.050;17.018;2023-03-08T10:27:05;5.10;;;3.60;;
78968;SDS011;68369;51.050;17.018;2023-03-08T10:30:00;5.90;;;3.90;;
78968;SDS011;68369;51.050;17.018;2023-03-08T10:32:56;7.70;;;4.30;;
78968;SDS011;68369;51.050;17.018;2023-03-08T10:38:57;6.30;;;3.70;;
78968;SDS011;68369;51.050;17.018;2023-03-08T10:41:46;5.50;;;3.50;;
78968;SDS011;68369;51.050;17.018;2023-03-08T10:44:52;7.50;;;4.30;;
78968;SDS011;68369;51.050;17.018;2023-03-08T10:47:37;9.20;;;5.40;;
78968;SDS011;68369;51.050;17.018;2023-03-08T10:50:24;8.10;;;5.00;;
78968;SDS011;68369;51.050;17.018;2023-03-08T10:53:17;3.00;;;1.90;;
78968;SDS011;68369;51.050;17.018;2023-03-08T10:56:14;6.70;;;4.20;;
78968;SDS011;68369;51.050;17.018;2023-03-08T10:59:15;6.20;;;3.90;;
78968;SDS011;68369;51.050;17.018;2023-03-08T11:04:57;7.60;;;3.80;;
78968;SDS011;68369;51.050;17.018;2023-03-08T11:07:49;6.40;;;4.00;;
78968;SDS011;68369;51.050;17.018;2023-03-08T11:10:36;6.40;;;3.50;;
78968;SDS011;68369;51.050;17.018;2023-03-08T11:19:12;5.40;;;3.40;;
78968;SDS011;68369;51.050;17.018;2023-03-08T11:33:59;6.70;;;3.30;;
78968;SDS011;68369;51.050;17.018;2023-03-08T11:43:10;7.30;;;4.60;;
78968;SDS011;68369;51.050;17.018;2023-03-08T11:57:53;6.90;;;4.10;;
78968;SDS011;68369;51.050;17.018;2023-03-08T12:00:45;6.20;;;4.20;;
78968;SDS011;68369;51.050;17.018;2023-03-08T12:03:33;6.60;;;4.20;;
78968;SDS011;68369;51.050;17.018;2023-03-08T12:06:34;7.90;;;4.60;;
78968;SDS011;68369;51.050;17.018;2023-03-08T12:09:30;6.20;;;4.00;;
78968;SDS011;68369;51.050;17.018;2023-03-08T12:12:24;7.00;;;4.20;;
78968;SDS011;68369;51.050;17.018;2023-03-08T12:18:34;6.50;;;4.10;;
78968;SDS011;68369;51.050;17.018;2023-03-08T12:21:29;7.90;;;5.20;;
78968;SDS011;68369;51.050;17.018;2023-03-08T12:27:22;6.10;;;3.50;;
78968;SDS011;68369;51.050;17.018;2023-03-08T12:30:29;5.90;;;3.80;;
78968;SDS011;68369;51.050;17.018;2023-03-08T12:33:31;7.60;;;4.20;;
78968;SDS011;68369;51.050;17.018;2023-03-08T12:36:17;7.80;;;3.40;;
78968;SDS011;68369;51.050;17.018;2023-03-08T12:39:07;6.10;;;3.70;;
78968;SDS011;68369;51.050;17.018;2023-03-08T12:45:03;8.20;;;3.80;;
78968;SDS011;68369;51.050;17.018;2023-03-08T12:47:57;6.60;;;4.00;;
78968;SDS011;68369;51.050;17.018;2023-03-08T12:50:54;7.70;;;4.20;;
78968;SDS011;68369;51.050;17.018;2023-03-08T12:59:40;6.50;;;3.10;;
78968;SDS011;68369;51.050;17.018;2023-03-08T13:02:27;7.80;;;3.70;;
78968;SDS011;68369;51.050;17.018;2023-03-08T13:08:05;9.80;;;5.10;;
78968;SDS011;68369;51.050;17.018;2023-03-08T13:11:11;6.90;;;4.20;;
78968;SDS011;68369;51.050;17.018;2023-03-08T13:14:00;8.30;;;4.50;;
78968;SDS011;68369;51.050;17.018;2023-03-08T13:16:46;8.40;;;4.40;;
78968;SDS011;68369;51.050;17.018;2023-03-08T13:19:31;6.50;;;4.90;;
78968;SDS011;68369;51.050;17.018;2023-03-08T13:22:22;7.90;;;5.00;;
78968;SDS011;68369;51.050;17.018;2023-03-08T13:25:19;7.40;;;4.60;;
78968;SDS011;68369;51.050;17.018;2023-03-08T13:28:36;7.10;;;3.90;;
78968;SDS011;68369;51.050;17.018;2023-03-08T13:31:32;5.40;;;3.20;;
78968;SDS011;68369;51.050;17.018;2023-03-08T13:37:23;8.80;;;5.60;;
78968;SDS011;68369;51.050;17.018;2023-03-08T13:40:17;8.70;;;5.10;;
78968;SDS011;68369;51.050;17.018;2023-03-08T13:43:04;9.70;;;5.10;;
78968;SDS011;68369;51.050;17.018;2023-03-08T13:45:53;9.60;;;5.50;;
78968;SDS011;68369;51.050;17.018;2023-03-08T13:48:42;8.70;;;5.50;;
78968;SDS011;68369;51.050;17.018;2023-03-08T13:51:28;9.10;;;5.60;;
78968;SDS011;68369;51.050;17.018;2023-03-08T13:54:14;8.70;;;5.30;;
78968;SDS011;68369;51.050;17.018;2023-03-08T13:57:16;9.40;;;5.70;;
78968;SDS011;68369;51.050;17.018;2023-03-08T14:03:17;3.70;;;2.30;;
78968;SDS011;68369;51.050;17.018;2023-03-08T14:06:12;9.70;;;5.10;;
78968;SDS011;68369;51.050;17.018;2023-03-08T14:09:01;10.20;;;5.60;;
78968;SDS011;68369;51.050;17.018;2023-03-08T14:11:58;10.30;;;6.20;;
78968;SDS011;68369;51.050;17.018;2023-03-08T14:14:47;9.40;;;6.10;;
78968;SDS011;68369;51.050;17.018;2023-03-08T14:17:36;13.10;;;7.60;;
78968;SDS011;68369;51.050;17.018;2023-03-08T14:20:22;11.70;;;6.30;;
78968;SDS011;68369;51.050;17.018;2023-03-08T14:23:20;9.10;;;5.70;;
78968;SDS011;68369;51.050;17.018;2023-03-08T14:29:16;10.20;;;6.40;;
78968;SDS011;68369;51.050;17.018;2023-03-08T14:35:02;9.00;;;6.00;;
78968;SDS011;68369;51.050;17.018;2023-03-08T14:38:20;8.60;;;6.10;;
78968;SDS011;68369;51.050;17.018;2023-03-08T14:41:08;11.90;;;7.20;;
78968;SDS011;68369;51.050;17.018;2023-03-08T14:43:59;9.70;;;6.30;;
78968;SDS011;68369;51.050;17.018;2023-03-08T14:46:46;11.00;;;7.00;;
78968;SDS011;68369;51.050;17.018;2023-03-08T14:49:31;10.50;;;6.90;;
78968;SDS011;68369;51.050;17.018;2023-03-08T14:52:19;10.30;;;6.00;;
78968;SDS011;68369;51.050;17.018;2023-03-08T14:55:18;7.90;;;5.20;;
78968;SDS011;68369;51.050;17.018;2023-03-08T14:58:09;9.90;;;6.90;;
78968;SDS011;68369;51.050;17.018;2023-03-08T15:00:57;11.80;;;5.70;;
78968;SDS011;68369;51.050;17.018;2023-03-08T15:03:44;11.40;;;6.50;;
78968;SDS011;68369;51.050;17.018;2023-03-08T15:09:25;11.00;;;6.80;;
78968;SDS011;68369;51.050;17.018;2023-03-08T16:20:24;19.30;;;9.90;;
78968;SDS011;68369;51.050;17.018;2023-03-08T16:23:09;15.40;;;8.20;;
78968;SDS011;68369;51.050;17.018;2023-03-08T16:25:59;14.40;;;8.60;;
78968;SDS011;68369;51.050;17.018;2023-03-08T16:29:00;14.20;;;8.40;;
78968;SDS011;68369;51.050;17.018;2023-03-08T16:31:45;15.70;;;9.30;;
78968;SDS011;68369;51.050;17.018;2023-03-08T16:34:30;15.90;;;9.40;;
78968;SDS011;68369;51.050;17.018;2023-03-08T16:37:19;17.10;;;9.90;;
78968;SDS011;68369;51.050;17.018;2023-03-08T16:40:05;17.70;;;10.80;;
78968;SDS011;68369;51.050;17.018;2023-03-08T16:42:51;19.40;;;10.10;;
78968;SDS011;68369;51.050;17.018;2023-03-08T16:45:36;16.00;;;9.10;;
78968;SDS011;68369;51.050;17.018;2023-03-08T16:48:23;16.70;;;8.20;;
78968;SDS011;68369;51.050;17.018;2023-03-08T16:51:12;13.30;;;7.80;;
78968;SDS011;68369;51.050;17.018;2023-03-08T16:54:01;13.90;;;7.90;;
78968;SDS011;68369;51.050;17.018;2023-03-08T16:56:46;11.00;;;7.40;;
78968;SDS011;68369;51.050;17.018;2023-03-08T16:59:30;17.40;;;9.80;;
78968;SDS011;68369;51.050;17.018;2023-03-08T17:02:19;20.70;;;10.40;;
78968;SDS011;68369;51.050;17.018;2023-03-08T17:05:05;15.10;;;8.80;;
78968;SDS011;68369;51.050;17.018;2023-03-08T17:07:54;16.30;;;9.50;;
78968;SDS011;68369;51.050;17.018;2023-03-08T17:10:39;16.30;;;7.40;;
78968;SDS011;68369;51.050;17.018;2023-03-08T17:13:25;14.60;;;7.60;;
78968;SDS011;68369;51.050;17.018;2023-03-08T17:18:57;15.60;;;7.90;;
78968;SDS011;68369;51.050;17.018;2023-03-08T17:21:43;12.90;;;7.60;;
78968;SDS011;68369;51.050;17.018;2023-03-08T17:24:28;16.00;;;9.30;;
78968;SDS011;68369;51.050;17.018;2023-03-08T17:27:15;14.90;;;8.80;;
78968;SDS011;68369;51.050;17.018;2023-03-08T17:30:01;17.10;;;9.10;;
78968;SDS011;68369;51.050;17.018;2023-03-08T17:38:18;15.00;;;8.80;;
78968;SDS011;68369;51.050;17.018;2023-03-08T17:43:56;22.50;;;9.00;;
78968;SDS011;68369;51.050;17.018;2023-03-08T17:49:36;15.40;;;8.60;;
78968;SDS011;68369;51.050;17.018;2023-03-08T17:52:24;19.20;;;9.60;;
78968;SDS011;68369;51.050;17.018;2023-03-08T17:58:26;17.90;;;10.00;;
78968;SDS011;68369;51.050;17.018;2023-03-08T18:01:30;21.00;;;11.20;;
78968;SDS011;68369;51.050;17.018;2023-03-08T18:04:15;20.50;;;10.40;;
78968;SDS011;68369;51.050;17.018;2023-03-08T18:07:03;28.30;;;12.20;;
78968;SDS011;68369;51.050;17.018;2023-03-08T18:09:53;23.10;;;10.30;;
78968;SDS011;68369;51.050;17.018;2023-03-08T18:12:38;22.70;;;11.60;;
78968;SDS011;68369;51.050;17.018;2023-03-08T18:18:42;28.00;;;13.20;;
78968;SDS011;68369;51.050;17.018;2023-03-08T18:21:30;28.10;;;13.00;;
78968;SDS011;68369;51.050;17.018;2023-03-08T18:24:16;25.10;;;12.80;;
78968;SDS011;68369;51.050;17.018;2023-03-08T18:30:04;22.60;;;11.90;;
78968;SDS011;68369;51.050;17.018;2023-03-08T18:32:50;17.50;;;8.90;;
78968;SDS011;68369;51.050;17.018;2023-03-08T18:45:13;17.90;;;10.70;;
78968;SDS011;68369;51.050;17.018;2023-03-08T18:50:42;19.50;;;10.10;;
78968;SDS011;68369;51.050;17.018;2023-03-08T18:53:32;22.00;;;10.90;;
78968;SDS011;68369;51.050;17.018;2023-03-08T19:02:26;20.60;;;11.70;;
78968;SDS011;68369;51.050;17.018;2023-03-08T19:05:14;50.50;;;23.50;;
78968;SDS011;68369;51.050;17.018;2023-03-08T19:08:03;64.00;;;27.30;;
78968;SDS011;68369;51.050;17.018;2023-03-08T19:10:48;74.70;;;29.30;;
78968;SDS011;68369;51.050;17.018;2023-03-08T19:13:33;68.50;;;28.80;;
78968;SDS011;68369;51.050;17.018;2023-03-08T19:16:20;41.50;;;20.90;;
78968;SDS011;68369;51.050;17.018;2023-03-08T19:19:07;36.60;;;18.30;;
78968;SDS011;68369;51.050;17.018;2023-03-08T19:21:54;29.40;;;15.70;;
78968;SDS011;68369;51.050;17.018;2023-03-08T19:24:39;23.60;;;15.00;;
78968;SDS011;68369;51.050;17.018;2023-03-08T19:27:25;27.90;;;16.00;;
78968;SDS011;68369;51.050;17.018;2023-03-08T19:30:10;28.00;;;15.90;;
78968;SDS011;68369;51.050;17.018;2023-03-08T19:32:55;31.00;;;17.50;;
78968;SDS011;68369;51.050;17.018;2023-03-08T19:35:41;27.90;;;15.00;;
78968;SDS011;68369;51.050;17.018;2023-03-08T19:38:26;29.00;;;17.10;;
78968;SDS011;68369;51.050;17.018;2023-03-08T19:41:13;26.90;;;13.50;;
78968;SDS011;68369;51.050;17.018;2023-03-08T19:44:00;29.30;;;14.80;;
78968;SDS011;68369;51.050;17.018;2023-03-08T19:46:50;26.40;;;14.10;;
78968;SDS011;68369;51.050;17.018;2023-03-08T19:49:36;23.80;;;13.50;;
78968;SDS011;68369;51.050;17.018;2023-03-08T19:52:22;25.80;;;14.90;;
78968;SDS011;68369;51.050;17.018;2023-03-08T19:58:01;31.70;;;16.50;;
78968;SDS011;68369;51.050;17.018;2023-03-08T20:00:47;28.70;;;16.60;;
78968;SDS011;68369;51.050;17.018;2023-03-08T20:03:34;30.30;;;16.00;;
78968;SDS011;68369;51.050;17.018;2023-03-08T20:06:34;30.30;;;15.40;;
78968;SDS011;68369;51.050;17.018;2023-03-08T20:09:25;25.30;;;14.90;;
78968;SDS011;68369;51.050;17.018;2023-03-08T20:18:21;31.10;;;15.80;;
78968;SDS011;68369;51.050;17.018;2023-03-08T20:21:28;31.00;;;17.20;;
78968;SDS011;68369;51.050;17.018;2023-03-08T20:27:18;31.20;;;16.10;;
78968;SDS011;68369;51.050;17.018;2023-03-08T20:30:04;35.00;;;18.60;;
78968;SDS011;68369;51.050;17.018;2023-03-08T20:38:57;29.10;;;15.50;;
78968;SDS011;68369;51.050;17.018;2023-03-08T20:44:51;35.40;;;17.10;;
78968;SDS011;68369;51.050;17.018;2023-03-08T20:47:38;32.00;;;16.40;;
78968;SDS011;68369;51.050;17.018;2023-03-08T20:50:24;33.10;;;17.20;;
78968;SDS011;68369;51.050;17.018;2023-03-08T20:56:12;31.60;;;15.50;;
78968;SDS011;68369;51.050;17.018;2023-03-08T21:01:39;29.60;;;15.60;;
78968;SDS011;68369;51.050;17.018;2023-03-08T21:04:34;27.00;;;14.10;;
78968;SDS011;68369;51.050;17.018;2023-03-08T21:07:20;25.80;;;15.40;;
78968;SDS011;68369;51.050;17.018;2023-03-08T21:10:14;29.50;;;15.20;;
78968;SDS011;68369;51.050;17.018;2023-03-08T21:13:04;29.30;;;16.40;;
78968;SDS011;68369;51.050;17.018;2023-03-08T21:16:00;29.10;;;15.90;;
78968;SDS011;68369;51.050;17.018;2023-03-08T21:18:50;29.70;;;16.20;;
78968;SDS011;68369;51.050;17.018;2023-03-08T21:24:16;27.80;;;15.60;;
78968;SDS011;68369;51.050;17.018;2023-03-08T21:27:04;27.10;;;14.90;;
78968;SDS011;68369;51.050;17.018;2023-03-08T21:29:49;24.10;;;14.10;;
78968;SDS011;68369;51.050;17.018;2023-03-08T21:32:34;30.80;;;16.70;;
78968;SDS011;68369;51.050;17.018;2023-03-08T21:35:20;35.70;;;18.40;;
78968;SDS011;68369;51.050;17.018;2023-03-08T21:38:06;39.20;;;19.70;;
78968;SDS011;68369;51.050;17.018;2023-03-08T21:40:55;45.20;;;22.00;;
78968;SDS011;68369;51.050;17.018;2023-03-08T21:43:41;58.60;;;25.50;;
78968;SDS011;68369;51.050;17.018;2023-03-08T21:46:25;57.30;;;24.80;;
78968;SDS011;68369;51.050;17.018;2023-03-08T21:49:15;59.00;;;26.60;;
78968;SDS011;68369;51.050;17.018;2023-03-08T21:52:02;58.40;;;27.10;;
78968;SDS011;68369;51.050;17.018;2023-03-08T21:54:48;56.30;;;26.90;;
78968;SDS011;68369;51.050;17.018;2023-03-08T21:57:33;53.30;;;25.80;;
78968;SDS011;68369;51.050;17.018;2023-03-08T22:03:13;56.40;;;25.10;;
78968;SDS011;68369;51.050;17.018;2023-03-08T22:05:59;94.00;;;35.10;;
78968;SDS011;68369;51.050;17.018;2023-03-08T22:08:44;93.60;;;35.60;;
78968;SDS011;68369;51.050;17.018;2023-03-08T22:11:30;79.50;;;31.60;;
78968;SDS011;68369;51.050;17.018;2023-03-08T22:14:15;80.90;;;31.80;;
78968;SDS011;68369;51.050;17.018;2023-03-08T22:17:00;50.60;;;24.70;;
78968;SDS011;68369;51.050;17.018;2023-03-08T22:19:47;48.70;;;21.20;;
78968;SDS011;68369;51.050;17.018;2023-03-08T22:22:33;50.80;;;23.40;;
78968;SDS011;68369;51.050;17.018;2023-03-08T22:25:19;46.10;;;24.70;;
78968;SDS011;68369;51.050;17.018;2023-03-08T22:28:04;45.60;;;23.70;;
78968;SDS011;68369;51.050;17.018;2023-03-08T22:30:50;45.60;;;23.00;;
78968;SDS011;68369;51.050;17.018;2023-03-08T22:36:28;46.50;;;20.70;;